Main page
METAR-TAF:

METAR-TAF

Airports :

Cazaux, France

Cazaux Air Base

latitude: 44-32N, longitude: 001-08W, elevation: 25 m

Current weather observation

The report was made 39 minutes ago, at 01:30 UTC
Wind 7 kt from the North
Temperature 19°C
Humidity 83%
Pressure 1012 hPa
Visibility 10 km or more
no clouds below 1500 m and no cumulonimbus

METAR: LFBC 290130Z AUTO 35007KT CAVOK 19/16 Q1012

Time: 04:09 (02:09 UTC)


TAF: missing

Weather observations and forecasts of more than 4000 airports (METAR and TAF reports).

The available stations are represented by yellow and red dots on the map.

Hover mouse over dot to see the name of the station.

Then click to see weather observations and forecasts.

To change the map : click on the green buttons with a black cross to zoom in, on the green button with a dash to zoom out, or on the green arrows for adjacent maps.


METAR-TAF: